createdAt,value
2018-05-12T00:00:38.622Z,77.10
2018-05-12T00:03:08.380Z,77.00
2018-05-12T00:05:38.146Z,76.60
2018-05-12T00:08:07.894Z,76.50
2018-05-12T00:10:37.682Z,76.30
2018-05-12T00:13:07.431Z,76.20
2018-05-12T00:15:37.208Z,75.80
2018-05-12T00:18:07.709Z,75.50
2018-05-12T00:20:37.471Z,75.50
2018-05-12T00:23:08.078Z,75.10
2018-05-12T00:25:37.830Z,74.80
2018-05-12T00:28:07.575Z,74.10
2018-05-12T00:30:37.312Z,73.70
2018-05-12T00:33:07.097Z,73.10
2018-05-12T00:35:36.822Z,72.30
2018-05-12T00:38:06.593Z,71.70
2018-05-12T00:40:37.132Z,70.50
2018-05-12T00:43:07.644Z,69.80
2018-05-12T00:45:37.370Z,69.80
2018-05-12T00:48:07.902Z,69.10
2018-05-12T00:50:38.380Z,68.60
2018-05-12T00:53:08.340Z,68.60
2018-05-12T00:55:38.848Z,68.00
2018-05-12T00:58:08.592Z,67.90
2018-05-12T01:00:38.518Z,67.60
2018-05-12T01:03:08.260Z,68.30
2018-05-12T01:05:37.987Z,67.10
2018-05-12T01:08:07.871Z,67.10
2018-05-12T01:10:37.665Z,66.80
2018-05-12T01:13:08.375Z,66.60
2018-05-12T01:15:38.904Z,66.10
2018-05-12T01:18:09.428Z,66.10
2018-05-12T01:20:39.966Z,65.60
2018-05-12T01:23:10.532Z,66.00
2018-05-12T01:25:40.299Z,66.00
2018-05-12T01:28:10.803Z,64.50
2018-05-12T01:30:40.598Z,64.40
2018-05-12T01:33:10.364Z,63.90
2018-05-12T01:35:40.109Z,63.00
2018-05-12T01:38:09.869Z,62.30
2018-05-12T01:40:41.286Z,61.10
2018-05-12T01:43:11.126Z,61.10
2018-05-12T01:45:41.809Z,61.10
2018-05-12T01:48:11.587Z,61.10
2018-05-12T01:50:41.310Z,61.00
2018-05-12T01:53:11.091Z,61.20
2018-05-12T01:55:41.610Z,60.80
2018-05-12T01:58:11.585Z,60.70
2018-05-12T02:00:41.351Z,60.40
2018-05-12T02:03:11.866Z,60.30
2018-05-12T02:05:41.626Z,60.30
2018-05-12T02:08:11.378Z,60.60
2018-05-12T02:10:41.113Z,60.00
2018-05-12T02:13:11.621Z,61.00
2018-05-12T02:15:41.378Z,60.90
2018-05-12T02:18:11.175Z,60.80
2018-05-12T02:20:40.907Z,61.30
2018-05-12T02:23:10.697Z,61.30
2018-05-12T02:25:40.497Z,60.90
2018-05-12T02:28:11.083Z,60.00
2018-05-12T02:30:40.814Z,60.00
2018-05-12T02:33:10.549Z,60.10
2018-05-12T02:35:41.116Z,59.50
2018-05-12T02:38:11.079Z,59.50
2018-05-12T02:40:40.859Z,59.60
2018-05-12T02:43:10.647Z,59.20
2018-05-12T02:45:40.461Z,59.30
2018-05-12T02:48:10.203Z,59.40
2018-05-12T02:50:39.980Z,59.50
2018-05-12T02:53:09.742Z,59.60
2018-05-12T02:55:39.492Z,59.60
2018-05-12T02:58:09.259Z,59.60
2018-05-12T03:00:39.024Z,60.00
2018-05-12T03:03:09.741Z,59.60
2018-05-12T03:05:39.523Z,59.50
2018-05-12T03:08:09.228Z,58.10
2018-05-12T03:10:39.923Z,58.00
2018-05-12T03:13:09.680Z,57.30
2018-05-12T03:15:41.125Z,57.80
2018-05-12T03:18:10.922Z,57.80
2018-05-12T03:20:40.743Z,58.10
2018-05-12T03:23:10.502Z,58.10
2018-05-12T03:25:40.283Z,57.60
2018-05-12T03:28:10.843Z,57.10
2018-05-12T03:30:40.728Z,57.00
2018-05-12T03:33:11.236Z,57.40
2018-05-12T03:35:41.269Z,57.30
2018-05-12T03:38:11.820Z,57.10
2018-05-12T03:40:42.572Z,57.10
2018-05-12T03:43:12.333Z,57.10
2018-05-12T03:45:42.093Z,57.20
2018-05-12T03:48:11.851Z,56.10
2018-05-12T03:50:42.384Z,56.20
2018-05-12T03:53:12.230Z,56.20
2018-05-12T03:55:41.977Z,56.20
2018-05-12T03:58:11.752Z,55.90
2018-05-12T04:00:41.522Z,56.20
2018-05-12T04:03:11.264Z,55.90
2018-05-12T04:05:52.844Z,55.50
2018-05-12T04:08:34.441Z,54.90
2018-05-12T04:11:15.233Z,54.90
2018-05-12T04:13:44.952Z,55.00
2018-05-12T04:16:14.657Z,54.40
2018-05-12T04:18:44.429Z,54.30
2018-05-12T04:21:14.989Z,54.10
2018-05-12T04:23:45.020Z,54.10
2018-05-12T04:26:14.770Z,54.10
2018-05-12T04:28:44.544Z,54.50
2018-05-12T04:31:14.326Z,54.50
2018-05-12T04:33:44.102Z,54.60
2018-05-12T04:36:13.811Z,54.30
2018-05-12T04:38:43.621Z,54.00
2018-05-12T04:41:13.409Z,54.20
2018-05-12T04:43:43.187Z,55.30
2018-05-12T04:46:12.992Z,54.70
2018-05-12T04:48:42.749Z,55.00
2018-05-12T04:51:12.504Z,54.90
2018-05-12T04:53:43.028Z,53.80
2018-05-12T04:56:13.545Z,53.80
2018-05-12T04:58:43.665Z,53.80
2018-05-12T05:01:13.448Z,53.70
2018-05-12T05:03:43.257Z,53.70
2018-05-12T05:06:13.030Z,52.90
2018-05-12T05:08:42.787Z,52.60
2018-05-12T05:11:12.603Z,52.30
2018-05-12T05:13:42.387Z,53.30
2018-05-12T05:16:12.187Z,53.60
2018-05-12T05:18:41.953Z,53.80
2018-05-12T05:21:11.724Z,53.90
2018-05-12T05:23:41.492Z,54.60
2018-05-12T05:26:12.020Z,55.80
2018-05-12T05:28:42.922Z,56.60
2018-05-12T05:31:12.695Z,56.60
2018-05-12T05:33:42.423Z,57.00
2018-05-12T05:36:12.166Z,57.80
2018-05-12T05:38:41.911Z,57.90
2018-05-12T05:41:12.651Z,57.50
2018-05-12T05:43:42.493Z,57.40
2018-05-12T05:46:12.309Z,58.30
2018-05-12T05:48:42.117Z,58.60
2018-05-12T05:51:11.883Z,58.70
2018-05-12T05:53:41.658Z,59.20
2018-05-12T05:56:11.455Z,59.80
2018-05-12T05:58:41.191Z,60.00
2018-05-12T06:01:11.111Z,60.40
2018-05-12T06:03:40.903Z,60.90
2018-05-12T06:06:10.675Z,61.30
2018-05-12T06:08:40.439Z,60.40
2018-05-12T06:11:10.220Z,59.50
2018-05-12T06:13:39.964Z,58.90
2018-05-12T06:16:09.728Z,58.70
2018-05-12T06:18:40.260Z,58.40
2018-05-12T06:21:10.038Z,58.40
2018-05-12T06:23:39.826Z,58.80
2018-05-12T06:26:09.569Z,59.00
2018-05-12T06:28:39.398Z,58.50
2018-05-12T06:31:09.198Z,58.90
2018-05-12T06:33:38.981Z,58.30
2018-05-12T06:36:08.720Z,57.30
2018-05-12T06:38:38.526Z,56.40
2018-05-12T06:41:08.296Z,55.20
2018-05-12T06:43:38.072Z,53.70
2018-05-12T06:46:07.821Z,53.10
2018-05-12T06:48:37.586Z,52.60
2018-05-12T06:51:07.373Z,51.80
2018-05-12T06:53:37.900Z,49.80
2018-05-12T06:56:08.415Z,49.60
2018-05-12T06:58:39.131Z,49.50
2018-05-12T07:01:09.260Z,49.80
2018-05-12T07:03:39.027Z,48.90
2018-05-12T07:06:09.044Z,48.40
2018-05-12T07:08:39.027Z,48.40
2018-05-12T07:11:09.582Z,48.30
2018-05-12T07:13:39.400Z,48.20
2018-05-12T07:16:09.199Z,48.80
2018-05-12T07:18:38.966Z,48.20
2018-05-12T07:21:08.719Z,48.60
2018-05-12T07:23:38.514Z,48.80
2018-05-12T07:26:09.046Z,48.70
2018-05-12T07:28:39.599Z,48.90
2018-05-12T07:31:09.426Z,48.90
2018-05-12T07:33:39.159Z,49.30
2018-05-12T07:36:08.939Z,49.10
2018-05-12T07:38:38.698Z,49.50
2018-05-12T07:41:08.472Z,49.70
2018-05-12T07:43:39.199Z,49.80
2018-05-12T07:46:08.988Z,49.70
2018-05-12T07:48:38.783Z,49.40
2018-05-12T07:51:09.347Z,49.70
2018-05-12T07:53:39.123Z,49.70
2018-05-12T07:56:09.683Z,51.60
2018-05-12T07:58:39.427Z,51.50
2018-05-12T08:01:09.998Z,52.80
2018-05-12T08:03:40.532Z,52.30
2018-05-12T08:06:11.049Z,52.90
2018-05-12T08:08:41.579Z,53.60
2018-05-12T08:11:12.128Z,54.10
2018-05-12T08:13:41.880Z,54.00
2018-05-12T08:16:11.679Z,54.60
2018-05-12T08:18:41.442Z,55.40
2018-05-12T08:21:11.969Z,56.60
2018-05-12T08:23:42.480Z,56.00
2018-05-12T08:26:12.367Z,55.90
2018-05-12T08:28:42.189Z,56.20
2018-05-12T08:31:12.598Z,56.20
2018-05-12T08:33:44.185Z,56.30
2018-05-12T08:36:14.876Z,56.90
2018-05-12T08:38:44.661Z,57.60
2018-05-12T08:41:15.423Z,56.90
2018-05-12T08:43:45.943Z,56.60
2018-05-12T08:46:15.735Z,56.60
2018-05-12T08:48:46.280Z,56.50
2018-05-12T08:51:16.072Z,56.40
2018-05-12T08:53:46.594Z,56.60
2018-05-12T08:56:17.104Z,56.90
2018-05-12T08:58:46.873Z,56.80
2018-05-12T09:01:16.693Z,57.20
2018-05-12T09:03:46.436Z,58.00
2018-05-12T09:06:16.215Z,58.00
2018-05-12T09:08:46.588Z,58.20
2018-05-12T09:11:17.116Z,58.40
2018-05-12T09:13:47.667Z,58.40
2018-05-12T09:16:17.420Z,58.40
2018-05-12T09:18:47.144Z,58.10
2018-05-12T09:21:16.918Z,58.30
2018-05-12T09:23:46.713Z,57.60
2018-05-12T09:26:16.464Z,56.90
2018-05-12T09:28:46.279Z,56.60
2018-05-12T09:31:16.040Z,56.20
2018-05-12T09:33:46.586Z,56.40
2018-05-12T09:36:16.312Z,56.40
2018-05-12T09:38:46.087Z,56.30
2018-05-12T09:41:16.627Z,55.70
2018-05-12T09:43:46.387Z,55.70
2018-05-12T09:46:16.170Z,55.80
2018-05-12T09:48:45.919Z,54.20
2018-05-12T09:51:15.694Z,54.40
2018-05-12T09:53:45.516Z,54.70
2018-05-12T09:56:15.303Z,54.60
2018-05-12T09:58:45.039Z,54.60
2018-05-12T10:01:14.770Z,54.20
2018-05-12T10:03:44.531Z,54.30
2018-05-12T10:06:14.265Z,54.30
2018-05-12T10:08:44.035Z,53.90
2018-05-12T10:11:14.584Z,53.80
2018-05-12T10:13:44.330Z,53.80
2018-05-12T10:16:14.117Z,53.70
2018-05-12T10:18:43.939Z,54.10
2018-05-12T10:21:13.688Z,54.30
2018-05-12T10:23:43.607Z,54.90
2018-05-12T10:26:14.164Z,55.20
2018-05-12T10:28:44.776Z,55.60
2018-05-12T10:31:15.302Z,56.10
2018-05-12T10:33:45.844Z,56.60
2018-05-12T10:36:17.318Z,56.90
2018-05-12T10:38:47.148Z,56.90
2018-05-12T10:41:17.736Z,57.10
2018-05-12T10:43:48.346Z,57.60
2018-05-12T10:46:18.199Z,57.50
2018-05-12T10:48:47.966Z,57.90
2018-05-12T10:51:17.738Z,57.90
2018-05-12T10:53:47.510Z,58.20
2018-05-12T10:56:18.020Z,58.60
2018-05-12T10:58:47.778Z,58.60
2018-05-12T11:01:17.546Z,58.80
2018-05-12T11:03:48.077Z,59.20
2018-05-12T11:06:18.577Z,59.30
2018-05-12T11:08:48.434Z,59.20
2018-05-12T11:11:18.938Z,59.70
2018-05-12T11:13:48.932Z,59.70
2018-05-12T11:16:18.685Z,59.90
2018-05-12T11:18:49.770Z,60.50
2018-05-12T11:21:19.547Z,60.50
2018-05-12T11:23:49.380Z,60.70
2018-05-12T11:26:19.156Z,61.10
2018-05-12T11:28:50.454Z,61.10
2018-05-12T11:31:20.192Z,61.10
2018-05-12T11:33:49.929Z,62.40
2018-05-12T11:36:20.442Z,63.60
2018-05-12T11:38:51.309Z,63.60
2018-05-12T11:41:21.864Z,64.60
2018-05-12T11:43:51.641Z,64.60
2018-05-12T11:46:22.246Z,65.90
2018-05-12T11:48:51.996Z,65.10
2018-05-12T11:51:21.841Z,65.10
2018-05-12T11:53:52.432Z,65.90
2018-05-12T11:56:23.014Z,66.00
2018-05-12T11:58:52.768Z,66.00
2018-05-12T12:01:23.271Z,66.30
2018-05-12T12:03:53.108Z,66.30
2018-05-12T12:06:23.658Z,66.80
2018-05-12T12:08:53.422Z,67.60
2018-05-12T12:11:23.184Z,67.80
2018-05-12T12:13:52.968Z,66.90
2018-05-12T12:16:23.504Z,67.30
2018-05-12T12:18:54.047Z,67.40
2018-05-12T12:21:23.949Z,67.40
2018-05-12T12:23:53.728Z,67.30
2018-05-12T12:26:23.588Z,67.40
2018-05-12T12:28:53.327Z,67.70
2018-05-12T12:31:23.112Z,68.10
2018-05-12T12:33:52.943Z,68.30
2018-05-12T12:36:22.728Z,68.60
2018-05-12T12:38:52.673Z,68.60
2018-05-12T12:41:22.615Z,68.60
2018-05-12T12:43:52.376Z,68.20
2018-05-12T12:46:22.174Z,68.10
2018-05-12T12:48:52.050Z,68.10
2018-05-12T12:51:21.833Z,68.10
2018-05-12T12:53:51.585Z,68.20
2018-05-12T12:56:21.328Z,68.60
2018-05-12T12:58:51.099Z,69.00
2018-05-12T13:01:21.170Z,69.20
2018-05-12T13:03:51.190Z,69.60
2018-05-12T13:06:21.012Z,69.60
2018-05-12T13:08:50.780Z,69.30
2018-05-12T13:11:21.307Z,69.60
2018-05-12T13:13:51.848Z,69.60
2018-05-12T13:16:21.627Z,69.60
2018-05-12T13:18:52.179Z,69.30
2018-05-12T13:21:21.968Z,69.50
2018-05-12T13:23:51.723Z,69.60
2018-05-12T13:26:21.492Z,70.00
2018-05-12T13:28:51.280Z,69.90
2018-05-12T13:31:21.081Z,69.80
2018-05-12T13:33:50.837Z,69.70
2018-05-12T13:36:21.388Z,68.80
2018-05-12T13:38:51.154Z,68.80
2018-05-12T13:41:21.778Z,69.50
2018-05-12T13:43:51.523Z,69.40
2018-05-12T13:46:22.030Z,69.60
2018-05-12T13:48:51.822Z,69.60
2018-05-12T13:51:21.587Z,69.80
2018-05-12T13:53:51.360Z,69.70
2018-05-12T13:56:21.120Z,69.60
2018-05-12T13:58:50.905Z,69.60
2018-05-12T14:01:21.449Z,70.10
2018-05-12T14:03:51.192Z,70.10
2018-05-12T14:06:20.994Z,70.10
2018-05-12T14:08:50.814Z,69.90
2018-05-12T14:11:22.013Z,69.50
2018-05-12T14:13:52.574Z,70.30
2018-05-12T14:16:22.362Z,70.30
2018-05-12T14:18:52.902Z,71.10
2018-05-12T14:21:22.619Z,71.10
2018-05-12T14:23:52.411Z,71.40
2018-05-12T14:26:23.000Z,71.50
2018-05-12T14:28:53.682Z,71.50
2018-05-12T14:31:23.438Z,71.40
2018-05-12T14:33:53.346Z,71.00
2018-05-12T14:36:23.111Z,70.40
2018-05-12T14:38:53.631Z,69.80
2018-05-12T14:41:24.149Z,69.70
2018-05-12T14:43:53.959Z,69.70
2018-05-12T14:46:23.732Z,70.00
2018-05-12T14:48:53.653Z,70.20
2018-05-12T14:51:23.453Z,70.30
2018-05-12T14:53:53.240Z,70.10
2018-05-12T14:56:23.040Z,70.50
2018-05-12T14:58:53.583Z,70.70
2018-05-12T15:01:23.368Z,71.40
2018-05-12T15:03:53.910Z,70.70
2018-05-12T15:06:24.502Z,70.70
2018-05-12T15:08:54.277Z,70.70
2018-05-12T15:11:24.060Z,70.60
2018-05-12T15:13:54.572Z,71.60
2018-05-12T15:16:24.342Z,71.60
2018-05-12T15:18:54.190Z,71.70
2018-05-12T15:21:23.952Z,71.90
2018-05-12T15:23:53.713Z,72.40
2018-05-12T15:26:24.249Z,72.40
2018-05-12T15:28:53.993Z,72.20
2018-05-12T15:31:23.753Z,71.90
2018-05-12T15:33:53.550Z,71.50
2018-05-12T15:36:23.352Z,71.30
2018-05-12T15:38:53.117Z,71.20
2018-05-12T15:41:23.653Z,71.20
2018-05-12T15:43:54.267Z,71.00
2018-05-12T15:46:24.945Z,70.70
2018-05-12T15:48:54.712Z,70.70
2018-05-12T15:51:24.563Z,70.90
2018-05-12T15:53:54.328Z,71.20
2018-05-12T15:56:24.137Z,71.30
2018-05-12T15:58:53.934Z,71.30
2018-05-12T16:01:23.809Z,71.30
2018-05-12T16:03:53.575Z,71.40
2018-05-12T16:06:23.449Z,71.70
2018-05-12T16:08:53.268Z,71.70
2018-05-12T16:11:23.038Z,71.50
2018-05-12T16:13:52.812Z,71.50
2018-05-12T16:16:22.612Z,71.40
2018-05-12T16:18:53.215Z,71.70
2018-05-12T16:21:23.036Z,71.80
2018-05-12T16:23:52.791Z,71.90
2018-05-12T16:26:22.557Z,72.00
2018-05-12T16:28:52.297Z,72.00
2018-05-12T16:31:22.127Z,72.20
2018-05-12T16:33:52.719Z,71.70
2018-05-12T16:36:24.279Z,71.60
2018-05-12T16:38:54.043Z,71.40
2018-05-12T16:41:24.536Z,70.90
2018-05-12T16:43:54.299Z,70.90
2018-05-12T16:46:24.319Z,70.90
2018-05-12T16:48:54.097Z,70.90
2018-05-12T16:51:24.626Z,70.40
2018-05-12T16:53:55.208Z,70.00
2018-05-12T16:56:24.961Z,70.00
2018-05-12T16:58:54.695Z,70.00
2018-05-12T17:01:25.275Z,69.70
2018-05-12T17:03:55.855Z,70.00
2018-05-12T17:06:26.423Z,70.00
2018-05-12T17:08:56.263Z,70.00
2018-05-12T17:11:26.038Z,70.00
2018-05-12T17:13:55.794Z,70.00
2018-05-12T17:16:25.568Z,70.00
2018-05-12T17:18:55.410Z,70.10
2018-05-12T17:21:25.186Z,70.30
2018-05-12T17:23:54.916Z,70.50
2018-05-12T17:26:24.678Z,70.60
2018-05-12T17:28:55.324Z,70.60
2018-05-12T17:31:25.048Z,71.00
2018-05-12T17:33:54.796Z,71.10
2018-05-12T17:36:25.172Z,71.40
2018-05-12T17:38:54.920Z,71.60
2018-05-12T17:41:24.624Z,71.70
2018-05-12T17:43:54.382Z,71.90
2018-05-12T17:46:24.872Z,71.70
2018-05-12T17:48:54.616Z,71.70
2018-05-12T17:51:25.145Z,71.40
2018-05-12T17:53:55.671Z,72.00
2018-05-12T17:56:26.194Z,72.40
2018-05-12T17:58:56.790Z,72.60
2018-05-12T18:01:26.603Z,72.60
2018-05-12T18:03:58.197Z,73.10
2018-05-12T18:06:27.983Z,73.10
2018-05-12T18:08:57.745Z,73.10
2018-05-12T18:11:27.561Z,73.10
2018-05-12T18:13:57.381Z,72.90
2018-05-12T18:16:27.152Z,72.50
2018-05-12T18:18:57.679Z,72.40
2018-05-12T18:21:28.181Z,72.60
2018-05-12T18:23:57.931Z,72.60
2018-05-12T18:26:27.694Z,73.60
2018-05-12T18:28:57.451Z,73.30
2018-05-12T18:31:27.970Z,73.80
2018-05-12T18:33:58.502Z,74.00
2018-05-12T18:36:29.076Z,74.20
2018-05-12T18:38:58.847Z,74.10
2018-05-12T18:41:29.365Z,74.30
2018-05-12T18:43:59.906Z,74.20
2018-05-12T18:46:29.662Z,74.20
2018-05-12T18:48:59.427Z,74.20
2018-05-12T18:51:29.194Z,74.10
2018-05-12T18:53:58.972Z,74.00
2018-05-12T18:56:28.761Z,73.90
2018-05-12T18:58:58.547Z,73.80
2018-05-12T19:01:29.181Z,73.90
2018-05-12T19:03:58.935Z,74.20
2018-05-12T19:06:28.715Z,74.20
2018-05-12T19:08:58.466Z,74.40
2018-05-12T19:11:28.376Z,74.70
2018-05-12T19:13:58.127Z,74.70
2018-05-12T19:16:27.898Z,74.60
2018-05-12T19:18:57.628Z,74.70
2018-05-12T19:21:27.395Z,74.80
2018-05-12T19:23:57.938Z,74.90
2018-05-12T19:26:27.668Z,74.80
2018-05-12T19:28:57.417Z,74.80
2018-05-12T19:31:27.232Z,74.70
2018-05-12T19:33:56.988Z,74.50
2018-05-12T19:36:26.744Z,74.60
2018-05-12T19:38:57.236Z,75.10
2018-05-12T19:41:26.952Z,75.00
2018-05-12T19:43:56.734Z,75.00
2018-05-12T19:46:26.467Z,75.40
2018-05-12T19:48:56.249Z,75.40
2018-05-12T19:51:26.775Z,75.00
2018-05-12T19:53:57.303Z,75.10
2018-05-12T19:56:27.818Z,75.40
2018-05-12T19:58:58.355Z,75.60
2018-05-12T20:01:28.896Z,75.50
2018-05-12T20:03:59.434Z,75.20
2018-05-12T20:06:29.199Z,75.20
2018-05-12T20:08:59.023Z,74.80
2018-05-12T20:11:29.571Z,74.80
2018-05-12T20:14:00.096Z,75.10
2018-05-12T20:16:30.609Z,75.30
2018-05-12T20:19:00.359Z,75.30
2018-05-12T20:21:30.090Z,75.40
2018-05-12T20:24:00.430Z,75.50
2018-05-12T20:26:30.181Z,75.60
2018-05-12T20:29:00.708Z,75.70
2018-05-12T20:31:31.244Z,75.70
2018-05-12T20:34:01.775Z,75.60
2018-05-12T20:36:32.293Z,75.70
2018-05-12T20:39:02.807Z,75.60
2018-05-12T20:41:32.565Z,75.50
2018-05-12T20:44:02.347Z,75.50
2018-05-12T20:46:32.132Z,75.00
2018-05-12T20:49:02.600Z,74.90
2018-05-12T20:51:32.335Z,74.80
2018-05-12T20:54:02.126Z,74.80
2018-05-12T20:56:31.851Z,74.90
2018-05-12T20:59:01.588Z,75.00
2018-05-12T21:01:31.441Z,74.80
2018-05-12T21:04:02.008Z,74.40
2018-05-12T21:06:31.814Z,74.40
2018-05-12T21:09:01.541Z,74.20
2018-05-12T21:11:31.303Z,74.10
2018-05-12T21:14:01.808Z,74.00
2018-05-12T21:16:31.577Z,74.00
2018-05-12T21:19:01.375Z,73.90
2018-05-12T21:21:31.141Z,74.00
2018-05-12T21:24:00.908Z,74.10
2018-05-12T21:26:30.763Z,74.30
2018-05-12T21:29:00.535Z,75.00
2018-05-12T21:31:30.295Z,75.80
2018-05-12T21:34:01.862Z,76.80
2018-05-12T21:36:32.408Z,77.00
2018-05-12T21:39:02.163Z,76.80
2018-05-12T21:41:31.967Z,77.00
2018-05-12T21:44:01.717Z,76.70
2018-05-12T21:46:32.226Z,75.90
2018-05-12T21:49:01.971Z,76.60
2018-05-12T21:51:33.500Z,76.30
2018-05-12T21:54:04.205Z,76.30
2018-05-12T21:56:34.817Z,76.60
2018-05-12T21:59:04.683Z,76.90
2018-05-12T22:01:35.338Z,77.00
2018-05-12T22:04:05.121Z,76.90
2018-05-12T22:06:34.893Z,76.70
2018-05-12T22:09:04.968Z,76.40
2018-05-12T22:11:35.496Z,76.20
2018-05-12T22:14:06.101Z,76.30
2018-05-12T22:16:35.846Z,76.20
2018-05-12T22:19:05.678Z,76.40
2018-05-12T22:21:35.439Z,76.60
2018-05-12T22:24:05.251Z,76.60
2018-05-12T22:26:35.797Z,76.80
2018-05-12T22:29:06.379Z,76.70
2018-05-12T22:31:36.151Z,76.70
2018-05-12T22:34:06.785Z,76.60
2018-05-12T22:36:37.377Z,76.40
2018-05-12T22:39:07.408Z,76.40
2018-05-12T22:41:37.964Z,76.00
2018-05-12T22:44:07.711Z,76.00
2018-05-12T22:46:37.574Z,75.90
2018-05-12T22:49:08.126Z,75.60
2018-05-12T22:51:38.943Z,75.60
2018-05-12T22:54:08.726Z,75.30
2018-05-12T22:56:38.471Z,75.10
2018-05-12T22:59:13.723Z,74.90
2018-05-12T23:01:43.488Z,75.10
2018-05-12T23:04:13.255Z,75.40
2018-05-12T23:06:43.362Z,75.70
2018-05-12T23:09:13.083Z,75.80
2018-05-12T23:11:42.868Z,76.00
2018-05-12T23:14:13.378Z,76.50
2018-05-12T23:16:43.923Z,76.60
2018-05-12T23:19:14.452Z,76.70
2018-05-12T23:21:44.951Z,76.80
2018-05-12T23:24:14.679Z,76.80
2018-05-12T23:26:45.217Z,76.50
2018-05-12T23:29:15.726Z,76.20
2018-05-12T23:31:45.445Z,76.20
2018-05-12T23:34:17.746Z,75.60
2018-05-12T23:36:47.507Z,75.60
2018-05-12T23:39:18.219Z,75.20
2018-05-12T23:41:47.954Z,75.30
2018-05-12T23:44:17.718Z,75.30
2018-05-12T23:46:47.460Z,75.10
2018-05-12T23:49:17.206Z,75.10
2018-05-12T23:51:47.715Z,74.70
2018-05-12T23:54:17.446Z,74.60
2018-05-12T23:56:47.953Z,74.40
2018-05-12T23:59:17.690Z,74.40
